MBK55 CYLQ-CYTF

Flight info

Callsign MBK55
Flight time 0h 27m
Altitude 17000
Route VERVU
Aircraft PC12/L-SDFGRWY/S

Departure

Time 2026-05-03 20:38
Airport La Tuque Airport (CYLQ)

Arrival

Time 2026-05-03 21:05
Airport Alma Airport (CYTF)
Time Latitude Longitude Altitude Speed Heading
2026-05-03 20:31 47.41573 -72.78706 582 ft 0 kts 265°
2026-05-03 20:35 47.41573 -72.78707 582 ft 1 kts 268°
2026-05-03 20:36 47.41602 -72.78732 586 ft 10 kts 345°
2026-05-03 20:36 47.41613 -72.78804 580 ft 9 kts 264°
2026-05-03 20:36 47.41609 -72.78885 582 ft 0 kts 266°
2026-05-03 20:36 47.41608 -72.78906 583 ft 6 kts 266°
2026-05-03 20:37 47.41591 -72.78984 584 ft 10 kts 171°
2026-05-03 20:37 47.41555 -72.78971 581 ft 0 kts 178°
2026-05-03 20:37 47.41441 -72.78961 583 ft 42 kts 176°
2026-05-03 20:37 47.40943 -72.78902 571 ft 98 kts 177°
2026-05-03 20:38 47.40232 -72.78807 895 ft 103 kts 181°
2026-05-03 20:38 47.39538 -72.78733 1421 ft 105 kts 176°
2026-05-03 20:38 47.38726 -72.78646 1776 ft 132 kts 183°
2026-05-03 20:38 47.37795 -72.78651 2482 ft 133 kts 185°
2026-05-03 20:39 47.36871 -72.78679 3193 ft 134 kts 186°
2026-05-03 20:39 47.35938 -72.78605 3903 ft 138 kts 165°
2026-05-03 20:39 47.35219 -72.77670 4588 ft 144 kts 114°
2026-05-03 20:39 47.35335 -72.76254 5191 ft 144 kts 48°
2026-05-03 20:40 47.36090 -72.75373 5900 ft 137 kts 27°
2026-05-03 20:40 47.36907 -72.74646 6577 ft 138 kts 27°
2026-05-03 20:40 47.37719 -72.73887 7228 ft 138 kts 28°
2026-05-03 20:40 47.38504 -72.73109 7865 ft 134 kts 30°
2026-05-03 20:41 47.39268 -72.72332 8474 ft 132 kts 30°
2026-05-03 20:41 47.40016 -72.71562 9077 ft 131 kts 30°
2026-05-03 20:41 47.40759 -72.70793 9662 ft 130 kts 30°
2026-05-03 20:41 47.41503 -72.70023 10181 ft 131 kts 30°
2026-05-03 20:42 47.42259 -72.69238 10705 ft 135 kts 30°
2026-05-03 20:42 47.43037 -72.68430 11272 ft 138 kts 31°
2026-05-03 20:42 47.43831 -72.67601 11875 ft 141 kts 31°
2026-05-03 20:42 47.44635 -72.66760 12519 ft 142 kts 31°
2026-05-03 20:43 47.45453 -72.65906 13187 ft 145 kts 31°
2026-05-03 20:43 47.46283 -72.65040 13827 ft 147 kts 31°
2026-05-03 20:43 47.47118 -72.64166 14432 ft 148 kts 31°
2026-05-03 20:43 47.47958 -72.63288 15049 ft 148 kts 31°
2026-05-03 20:44 47.48786 -72.62421 15661 ft 148 kts 30°
2026-05-03 20:44 47.49625 -72.61544 16294 ft 148 kts 30°
2026-05-03 20:44 47.50464 -72.60668 16932 ft 148 kts 29°
2026-05-03 20:44 47.51031 -72.60076 17369 ft 147 kts 29°
2026-05-03 20:45 47.51868 -72.59201 18008 ft 147 kts 29°
2026-05-03 20:45 47.53149 -72.57879 18027 ft 197 kts 30°
2026-05-03 20:45 47.54373 -72.56599 17754 ft 232 kts 31°
2026-05-03 20:45 47.55761 -72.55131 17477 ft 257 kts 32°
2026-05-03 20:46 47.56766 -72.54068 17289 ft 268 kts 32°
2026-05-03 20:46 47.58315 -72.52429 17066 ft 278 kts 32°
2026-05-03 20:46 47.59890 -72.50763 17035 ft 278 kts 32°
2026-05-03 20:46 47.61468 -72.49096 17023 ft 279 kts 32°
2026-05-03 20:47 47.63050 -72.47429 17011 ft 279 kts 32°
2026-05-03 20:47 47.64631 -72.45764 17009 ft 279 kts 32°
2026-05-03 20:47 47.66211 -72.44099 17011 ft 279 kts 32°
2026-05-03 20:47 47.67793 -72.42431 17010 ft 279 kts 32°
2026-05-03 20:48 47.69374 -72.40764 17009 ft 279 kts 32°
2026-05-03 20:48 47.70931 -72.39121 17006 ft 279 kts 32°
2026-05-03 20:48 47.72513 -72.37450 17008 ft 279 kts 32°
2026-05-03 20:48 47.74099 -72.35775 17007 ft 280 kts 32°
2026-05-03 20:49 47.75684 -72.34099 17003 ft 280 kts 32°
2026-05-03 20:49 47.77268 -72.32422 17009 ft 280 kts 32°
2026-05-03 20:49 47.78851 -72.30745 17005 ft 280 kts 32°
2026-05-03 20:49 47.80435 -72.29064 17014 ft 280 kts 32°
2026-05-03 20:50 47.82020 -72.27379 17016 ft 280 kts 32°
2026-05-03 20:50 47.83602 -72.25695 17012 ft 280 kts 32°
2026-05-03 20:50 47.85187 -72.24008 17015 ft 280 kts 32°
2026-05-03 20:50 47.86769 -72.22323 17015 ft 280 kts 32°
2026-05-03 20:51 47.88353 -72.20636 17011 ft 280 kts 32°
2026-05-03 20:51 47.89938 -72.18950 17012 ft 280 kts 32°
2026-05-03 20:51 47.91523 -72.17262 17021 ft 280 kts 32°
2026-05-03 20:51 47.93112 -72.15569 17015 ft 281 kts 32°
2026-05-03 20:52 47.94702 -72.13872 17012 ft 281 kts 33°
2026-05-03 20:52 47.96318 -72.12149 16630 ft 290 kts 33°
2026-05-03 20:52 47.97971 -72.10380 16230 ft 295 kts 33°
2026-05-03 20:52 47.99646 -72.08585 15832 ft 298 kts 33°
2026-05-03 20:53 48.01328 -72.06779 15446 ft 298 kts 33°
2026-05-03 20:53 48.03002 -72.04979 15062 ft 296 kts 33°
2026-05-03 20:53 48.04655 -72.03201 14683 ft 289 kts 33°
2026-05-03 20:53 48.06266 -72.01468 14305 ft 283 kts 33°
2026-05-03 20:54 48.07854 -71.99767 13937 ft 279 kts 33°
2026-05-03 20:54 48.10988 -71.96410 13146 ft 275 kts 33°
2026-05-03 20:54 48.12538 -71.94747 12736 ft 274 kts 33°
2026-05-03 20:55 48.14086 -71.93083 12332 ft 273 kts 33°
2026-05-03 20:55 48.15627 -71.91425 11932 ft 272 kts 33°
2026-05-03 20:55 48.16556 -71.90425 11693 ft 272 kts 33°
2026-05-03 20:55 48.17477 -71.89432 11462 ft 271 kts 33°
2026-05-03 20:56 48.19006 -71.87782 11071 ft 270 kts 33°
2026-05-03 20:56 48.20529 -71.86137 10689 ft 269 kts 33°
2026-05-03 20:56 48.22047 -71.84496 10307 ft 269 kts 33°
2026-05-03 20:56 48.23555 -71.82863 9932 ft 266 kts 33°
2026-05-03 20:57 48.25052 -71.81241 9547 ft 265 kts 33°
2026-05-03 20:57 48.26543 -71.79624 9133 ft 264 kts 33°
2026-05-03 20:57 48.28028 -71.78014 8723 ft 263 kts 33°
2026-05-03 20:57 48.29507 -71.76408 8361 ft 261 kts 34°
2026-05-03 20:58 48.30973 -71.74813 8014 ft 259 kts 34°
2026-05-03 20:58 48.32461 -71.73399 7675 ft 254 kts 20°
2026-05-03 20:58 48.34196 -71.73090 7337 ft 249 kts 348°
2026-05-03 20:58 48.35741 -71.74123 6998 ft 242 kts 320°
2026-05-03 20:59 48.36984 -71.75766 6673 ft 241 kts 315°
2026-05-03 20:59 48.38211 -71.77471 6345 ft 240 kts 315°
2026-05-03 20:59 48.39434 -71.79169 6002 ft 239 kts 315°
2026-05-03 20:59 48.40654 -71.80855 5654 ft 238 kts 315°
2026-05-03 21:00 48.41873 -71.82533 5309 ft 237 kts 315°
2026-05-03 21:00 48.42695 -71.83665 5035 ft 239 kts 315°
2026-05-03 21:00 48.44324 -71.85889 4348 ft 232 kts 317°
2026-05-03 21:00 48.45734 -71.86927 3806 ft 227 kts 346°
2026-05-03 21:01 48.47294 -71.86855 3291 ft 226 kts 10°
2026-05-03 21:01 48.48710 -71.86027 3034 ft 215 kts 27°
2026-05-03 21:01 48.49868 -71.84655 2767 ft 210 kts 46°
2026-05-03 21:01 48.50686 -71.82878 2507 ft 204 kts 53°
2026-05-03 21:02 48.51541 -71.81234 2242 ft 192 kts 48°
2026-05-03 21:02 48.52352 -71.79762 2074 ft 173 kts 48°
2026-05-03 21:02 48.53077 -71.78435 2051 ft 162 kts 48°
2026-05-03 21:02 48.53809 -71.77087 2041 ft 170 kts 49°
2026-05-03 21:03 48.54553 -71.75686 2034 ft 172 kts 50°
2026-05-03 21:03 48.55124 -71.74168 2023 ft 171 kts 101°
2026-05-03 21:03 48.54525 -71.72710 1892 ft 158 kts 126°
2026-05-03 21:03 48.53903 -71.71393 1833 ft 147 kts 127°
2026-05-03 21:04 48.53330 -71.70209 1816 ft 132 kts 127°
2026-05-03 21:04 48.52795 -71.69119 1520 ft 124 kts 128°
2026-05-03 21:04 48.52338 -71.68183 1361 ft 97 kts 126°
2026-05-03 21:04 48.51958 -71.67376 1108 ft 100 kts 126°
2026-05-03 21:05 48.51581 -71.66519 817 ft 95 kts 122°
2026-05-03 21:05 48.51299 -71.65619 577 ft 95 kts 114°
2026-05-03 21:05 48.51038 -71.64752 439 ft 82 kts 115°
2026-05-03 21:05 48.50861 -71.64190 440 ft 20 kts 121°
2026-05-03 21:06 48.50881 -71.64224 435 ft 20 kts 293°
2026-05-03 21:06 48.50956 -71.64477 432 ft 30 kts 293°
2026-05-03 21:06 48.51046 -71.64779 434 ft 29 kts 294°
2026-05-03 21:06 48.51111 -71.65006 428 ft 22 kts 279°
2026-05-03 21:07 48.51069 -71.65105 427 ft 9 kts 202°
2026-05-03 21:07 48.51021 -71.65139 435 ft 11 kts 213°
2026-05-03 21:07 48.51003 -71.65196 432 ft 4 kts 217°
2026-05-03 21:07 48.50991 -71.65194 430 ft 0 kts 51°